createdAt,value
2023-01-26T00:02:03.698Z,-0.92
2023-01-26T00:04:31.639Z,-0.92
2023-01-26T00:06:59.622Z,-0.93
2023-01-26T00:09:27.660Z,-0.93
2023-01-26T00:11:55.533Z,-0.93
2023-01-26T00:14:23.565Z,-0.94
2023-01-26T00:16:51.579Z,-0.95
2023-01-26T00:19:19.764Z,-0.94
2023-01-26T00:21:47.631Z,-0.95
2023-01-26T00:24:15.845Z,-0.95
2023-01-26T00:26:43.794Z,-0.95
2023-01-26T00:29:11.696Z,-0.94
2023-01-26T00:31:39.642Z,-0.94
2023-01-26T00:34:07.594Z,-0.93
2023-01-26T00:36:37.690Z,-0.93
2023-01-26T00:39:05.779Z,-0.92
2023-01-26T00:41:54.360Z,-0.89
2023-01-26T00:44:22.363Z,-0.89
2023-01-26T00:46:50.397Z,-0.89
2023-01-26T00:49:18.608Z,-0.86
2023-01-26T00:51:46.857Z,-0.86
2023-01-26T00:54:15.323Z,-0.85
2023-01-26T00:56:43.351Z,-0.85
2023-01-26T00:59:11.681Z,-0.83
2023-01-26T01:01:39.806Z,-0.82
2023-01-26T01:04:07.804Z,-0.82
2023-01-26T01:06:35.976Z,-0.82
2023-01-26T01:09:04.020Z,-0.81
2023-01-26T01:11:32.585Z,-0.79
2023-01-26T01:14:00.460Z,-0.79
2023-01-26T01:16:28.769Z,-0.78
2023-01-26T01:18:58.219Z,-0.77
2023-01-26T01:21:26.362Z,-0.77
2023-01-26T01:23:54.509Z,-0.76
2023-01-26T01:26:22.818Z,-0.76
2023-01-26T01:28:54.740Z,-0.78
2023-01-26T01:31:23.147Z,-0.80
2023-01-26T01:33:52.733Z,-0.80
2023-01-26T01:36:21.028Z,-0.79
2023-01-26T01:38:49.318Z,-0.78
2023-01-26T01:41:21.084Z,-0.78
2023-01-26T01:43:49.845Z,-0.79
2023-01-26T01:46:29.672Z,-0.79
2023-01-26T01:49:05.697Z,-0.81
2023-01-26T01:51:35.976Z,-0.82
2023-01-26T01:54:11.776Z,-0.81
2023-01-26T01:56:43.677Z,-0.81
2023-01-26T01:59:13.033Z,-0.83
2023-01-26T02:01:42.139Z,-0.85
2023-01-26T02:04:11.473Z,-0.86
2023-01-26T02:06:49.058Z,-0.85
2023-01-26T02:09:39.583Z,-0.86
2023-01-26T02:12:11.738Z,-0.88
2023-01-26T02:14:40.922Z,-0.89
2023-01-26T02:17:10.088Z,-0.90
2023-01-26T02:20:13.169Z,-0.88
2023-01-26T02:22:50.141Z,-0.89
2023-01-26T02:25:57.398Z,-0.89
2023-01-26T02:28:27.508Z,-0.90
2023-01-26T02:30:57.391Z,-0.91
2023-01-26T02:36:25.200Z,-0.90
2023-01-26T02:39:11.973Z,-0.87
2023-01-26T02:41:59.670Z,-0.86
2023-01-26T02:44:30.182Z,-0.85
2023-01-26T02:46:58.159Z,-0.84
2023-01-26T02:49:44.932Z,-0.85
2023-01-26T02:52:16.395Z,-0.84
2023-01-26T02:55:04.423Z,-0.82
2023-01-26T02:57:34.455Z,-0.79
2023-01-26T03:00:05.113Z,-0.78
2023-01-26T03:02:33.095Z,-0.76
2023-01-26T03:05:01.434Z,-0.74
2023-01-26T03:07:29.472Z,-0.73
2023-01-26T03:09:58.952Z,-0.72
2023-01-26T03:12:27.133Z,-0.71
2023-01-26T03:15:30.837Z,-0.69
2023-01-26T03:18:25.781Z,-0.68
2023-01-26T03:21:12.413Z,-0.68
2023-01-26T03:23:59.055Z,-0.68
2023-01-26T03:26:46.232Z,-0.69
2023-01-26T03:29:14.526Z,-0.66
2023-01-26T03:31:43.250Z,-0.65
2023-01-26T03:34:12.041Z,-0.64
2023-01-26T03:36:40.380Z,-0.63
2023-01-26T03:39:32.588Z,-0.63
2023-01-26T03:42:19.655Z,-0.64
2023-01-26T03:45:06.183Z,-0.63
2023-01-26T03:47:54.881Z,-0.63
2023-01-26T03:50:42.295Z,-0.62
2023-01-26T03:53:33.171Z,-0.63
2023-01-26T03:56:20.571Z,-0.64
2023-01-26T03:58:57.219Z,-0.64
2023-01-26T04:02:42.794Z,-0.66
2023-01-26T04:05:30.841Z,-0.68
2023-01-26T04:08:43.587Z,-0.69
2023-01-26T04:11:11.916Z,-0.70
2023-01-26T04:13:58.394Z,-0.71
2023-01-26T04:16:49.708Z,-0.73
2023-01-26T04:19:36.737Z,-0.74
2023-01-26T04:22:04.899Z,-0.76
2023-01-26T04:24:35.204Z,-0.78
2023-01-26T04:27:03.079Z,-0.79
2023-01-26T04:29:36.044Z,-0.79
2023-01-26T04:34:36.437Z,-0.82
2023-01-26T04:37:11.540Z,-0.85
2023-01-26T04:39:48.459Z,-0.86
2023-01-26T04:42:16.669Z,-0.87
2023-01-26T04:44:45.565Z,-0.87
2023-01-26T04:47:13.366Z,-0.87
2023-01-26T04:49:41.205Z,-0.85
2023-01-26T04:52:09.101Z,-0.84
2023-01-26T04:54:37.382Z,-0.84
2023-01-26T04:57:05.557Z,-0.83
2023-01-26T04:59:35.169Z,-0.83
2023-01-26T05:02:03.773Z,-0.82
2023-01-26T05:05:08.705Z,-0.81
2023-01-26T05:07:36.955Z,-0.80
2023-01-26T05:10:05.802Z,-0.80
2023-01-26T05:12:52.727Z,-0.80
2023-01-26T05:15:29.651Z,-0.81
2023-01-26T05:18:24.071Z,-0.82
2023-01-26T05:21:00.723Z,-0.82
2023-01-26T05:23:33.475Z,-0.83
2023-01-26T05:26:34.044Z,-0.82
2023-01-26T05:29:07.039Z,-0.81
2023-01-26T05:31:35.262Z,-0.80
2023-01-26T05:34:03.248Z,-0.79
2023-01-26T05:36:32.126Z,-0.78
2023-01-26T05:39:00.114Z,-0.78
2023-01-26T05:41:28.716Z,-0.77
2023-01-26T05:44:13.541Z,-0.77
2023-01-26T05:46:55.594Z,-0.76
2023-01-26T05:49:23.641Z,-0.74
2023-01-26T05:51:52.481Z,-0.75
2023-01-26T05:54:20.938Z,-0.74
2023-01-26T05:56:49.080Z,-0.74
2023-01-26T05:59:19.047Z,-0.75
2023-01-26T06:01:47.690Z,-0.76
2023-01-26T06:04:17.049Z,-0.75
2023-01-26T06:06:56.959Z,-0.75
2023-01-26T06:09:29.433Z,-0.76
2023-01-26T06:12:12.710Z,-0.75
2023-01-26T06:14:51.840Z,-0.74
2023-01-26T06:17:20.944Z,-0.74
2023-01-26T06:19:54.295Z,-0.73
2023-01-26T06:22:22.356Z,-0.73
2023-01-26T06:24:51.464Z,-0.71
2023-01-26T06:27:19.326Z,-0.69
2023-01-26T06:29:49.671Z,-0.67
2023-01-26T06:32:18.228Z,-0.68
2023-01-26T06:34:49.184Z,-0.67
2023-01-26T06:37:17.766Z,-0.67
2023-01-26T06:39:45.608Z,-0.67
2023-01-26T06:42:13.525Z,-0.67
2023-01-26T06:44:41.487Z,-0.68
2023-01-26T06:47:09.380Z,-0.70
2023-01-26T06:49:37.712Z,-0.72
2023-01-26T06:52:31.790Z,-0.73
2023-01-26T06:55:05.152Z,-0.76
2023-01-26T06:57:47.605Z,-0.76
2023-01-26T07:00:34.255Z,-0.76
2023-01-26T07:03:14.404Z,-0.76
2023-01-26T07:05:42.228Z,-0.75
2023-01-26T07:08:09.983Z,-0.73
2023-01-26T07:10:38.735Z,-0.73
2023-01-26T07:13:07.124Z,-0.73
2023-01-26T07:15:34.970Z,-0.74
2023-01-26T07:18:02.892Z,-0.70
2023-01-26T07:20:30.914Z,-0.72
2023-01-26T07:23:01.757Z,-0.70
2023-01-26T07:25:30.322Z,-0.69
2023-01-26T07:27:59.534Z,-0.68
2023-01-26T07:30:27.520Z,-0.65
2023-01-26T07:32:55.250Z,-0.63
2023-01-26T07:35:23.081Z,-0.62
2023-01-26T07:37:50.845Z,-0.61
2023-01-26T07:40:18.776Z,-0.59
2023-01-26T07:42:47.119Z,-0.57
2023-01-26T07:45:44.880Z,-0.57
2023-01-26T07:48:12.838Z,-0.55
2023-01-26T07:50:40.978Z,-0.54
2023-01-26T07:53:09.479Z,-0.51
2023-01-26T07:55:37.251Z,-0.50
2023-01-26T07:58:05.075Z,-0.48
2023-01-26T08:00:32.899Z,-0.49
2023-01-26T08:03:01.062Z,-0.50
2023-01-26T08:05:29.366Z,-0.48
2023-01-26T08:07:59.081Z,-0.48
2023-01-26T08:10:31.643Z,-0.48
2023-01-26T08:13:00.732Z,-0.48
2023-01-26T08:15:29.208Z,-0.48
2023-01-26T08:17:56.966Z,-0.46
2023-01-26T08:20:24.719Z,-0.45
2023-01-26T08:22:53.703Z,-0.41
2023-01-26T08:25:21.575Z,-0.37
2023-01-26T08:27:49.664Z,-0.33
2023-01-26T08:30:17.852Z,-0.32
2023-01-26T08:32:45.622Z,-0.34
2023-01-26T08:35:13.558Z,-0.32
2023-01-26T08:37:41.476Z,-0.29
2023-01-26T08:40:10.845Z,-0.29
2023-01-26T08:42:38.918Z,-0.31
2023-01-26T08:45:07.243Z,-0.33
2023-01-26T08:47:35.252Z,-0.35
2023-01-26T08:50:03.854Z,-0.37
2023-01-26T08:52:31.891Z,-0.38
2023-01-26T08:55:00.926Z,-0.36
2023-01-26T08:57:28.766Z,-0.35
2023-01-26T08:59:56.599Z,-0.34
2023-01-26T09:02:24.551Z,-0.32
2023-01-26T09:04:52.706Z,-0.30
2023-01-26T09:07:20.828Z,-0.32
2023-01-26T09:09:53.263Z,-0.32
2023-01-26T09:12:24.927Z,-0.32
2023-01-26T09:14:56.613Z,-0.30
2023-01-26T09:17:27.501Z,-0.29
2023-01-26T09:19:58.859Z,-0.29
2023-01-26T09:22:30.821Z,-0.29
2023-01-26T09:25:02.275Z,-0.29
2023-01-26T09:27:38.508Z,-0.27
2023-01-26T09:30:12.061Z,-0.23
2023-01-26T09:32:43.461Z,-0.19
2023-01-26T09:35:15.257Z,-0.16
2023-01-26T09:37:46.314Z,-0.12
2023-01-26T09:40:26.430Z,-0.07
2023-01-26T09:43:21.196Z,-0.06
2023-01-26T09:46:19.903Z,-0.04
2023-01-26T09:49:07.347Z,-0.03
2023-01-26T09:51:42.484Z,-0.02
2023-01-26T09:54:29.470Z,-0.04
2023-01-26T09:57:10.523Z,-0.06
2023-01-26T09:59:59.932Z,-0.03
2023-01-26T10:03:03.925Z,-0.02
2023-01-26T10:05:56.824Z,-0.03
2023-01-26T10:08:44.164Z,-0.00
2023-01-26T10:11:24.744Z,0.02
2023-01-26T10:13:57.765Z,0.04
2023-01-26T10:16:26.292Z,0.05
2023-01-26T10:19:02.687Z,-0.02
2023-01-26T10:21:36.776Z,-0.05
2023-01-26T10:24:05.976Z,-0.08
2023-01-26T10:26:34.113Z,-0.07
2023-01-26T10:29:03.469Z,-0.09
2023-01-26T10:31:33.490Z,-0.10
2023-01-26T10:34:11.786Z,-0.09
2023-01-26T10:36:41.819Z,-0.08
2023-01-26T10:39:14.614Z,-0.05
2023-01-26T10:41:57.054Z,-0.06
2023-01-26T10:44:45.174Z,-0.07
2023-01-26T10:47:17.343Z,-0.08
2023-01-26T10:49:45.870Z,-0.07
2023-01-26T10:52:28.356Z,-0.05
2023-01-26T10:55:19.946Z,-0.03
2023-01-26T10:57:48.123Z,-0.03
2023-01-26T11:04:38.014Z,-0.09
2023-01-26T11:07:40.195Z,-0.11
2023-01-26T11:10:38.476Z,-0.13
2023-01-26T11:13:12.320Z,-0.09
2023-01-26T11:15:47.960Z,-0.07
2023-01-26T11:18:53.960Z,-0.07
2023-01-26T11:21:36.042Z,-0.08
2023-01-26T11:24:09.227Z,-0.08
2023-01-26T11:26:52.321Z,-0.06
2023-01-26T11:29:35.162Z,-0.09
2023-01-26T11:32:24.779Z,-0.08
2023-01-26T11:34:55.439Z,-0.06
2023-01-26T11:37:36.504Z,-0.02
2023-01-26T11:40:30.586Z,-0.01
2023-01-26T11:43:42.915Z,0.02
2023-01-26T11:46:40.489Z,0.05
2023-01-26T11:49:46.152Z,0.10
2023-01-26T11:52:23.113Z,0.13
2023-01-26T11:55:18.827Z,0.17
2023-01-26T11:57:59.095Z,0.20
2023-01-26T12:00:40.232Z,0.20
2023-01-26T12:03:27.986Z,0.22
2023-01-26T12:06:00.453Z,0.23
2023-01-26T12:08:39.545Z,0.23
2023-01-26T12:11:33.844Z,0.22
2023-01-26T12:14:08.487Z,0.25
2023-01-26T12:16:39.359Z,0.35
2023-01-26T12:19:41.942Z,0.43
2023-01-26T12:22:13.704Z,0.53
2023-01-26T12:25:28.937Z,0.48
2023-01-26T12:27:58.363Z,0.41
2023-01-26T12:30:31.082Z,0.39
2023-01-26T12:32:59.588Z,0.38
2023-01-26T12:35:37.988Z,0.37
2023-01-26T12:38:18.620Z,0.36
2023-01-26T12:41:19.168Z,0.34
2023-01-26T12:44:32.142Z,0.31
2023-01-26T12:47:12.826Z,0.26
2023-01-26T12:49:50.576Z,0.23
2023-01-26T12:52:31.855Z,0.19
2023-01-26T12:55:18.482Z,0.17
2023-01-26T12:57:55.273Z,0.12
2023-01-26T13:00:30.772Z,0.08
2023-01-26T13:03:17.079Z,0.23
2023-01-26T13:06:14.214Z,1.00
2023-01-26T13:08:54.397Z,1.49
2023-01-26T13:11:44.091Z,1.31
2023-01-26T13:14:33.550Z,1.05
2023-01-26T13:17:16.839Z,0.79
2023-01-26T13:19:44.776Z,0.56
2023-01-26T13:22:18.764Z,0.40
2023-01-26T13:24:56.173Z,0.28
2023-01-26T13:27:41.012Z,0.24
2023-01-26T13:30:24.526Z,0.16
2023-01-26T13:32:54.228Z,0.09
2023-01-26T13:35:26.769Z,0.02
2023-01-26T13:38:29.549Z,-0.02
2023-01-26T13:40:59.089Z,-0.06
2023-01-26T13:43:29.992Z,-0.10
2023-01-26T13:46:19.916Z,-0.11
2023-01-26T13:48:52.606Z,-0.12
2023-01-26T13:51:24.989Z,-0.13
2023-01-26T13:54:13.577Z,-0.15
2023-01-26T13:57:07.260Z,-0.20
2023-01-26T13:59:48.846Z,-0.24
2023-01-26T14:02:49.742Z,-0.22
2023-01-26T14:05:22.332Z,-0.24
2023-01-26T14:07:50.215Z,-0.27
2023-01-26T14:10:20.198Z,-0.28
2023-01-26T14:12:56.627Z,-0.28
2023-01-26T14:15:30.842Z,-0.30
2023-01-26T14:18:04.620Z,-0.33
2023-01-26T14:20:39.592Z,-0.32
2023-01-26T14:23:07.327Z,-0.34
2023-01-26T14:25:35.309Z,-0.32
2023-01-26T14:28:04.025Z,-0.22
2023-01-26T14:30:34.325Z,-0.27
2023-01-26T14:33:16.521Z,-0.32
2023-01-26T14:35:54.857Z,-0.35
2023-01-26T14:38:22.780Z,-0.38
2023-01-26T14:40:53.760Z,-0.38
2023-01-26T14:43:22.086Z,-0.41
2023-01-26T14:46:33.104Z,-0.45
2023-01-26T14:49:08.137Z,-0.50
2023-01-26T14:51:37.913Z,-0.51
2023-01-26T14:54:26.465Z,-0.51
2023-01-26T14:56:54.494Z,-0.52
2023-01-26T14:59:41.312Z,-0.52
2023-01-26T15:02:22.780Z,-0.54
2023-01-26T15:05:03.594Z,-0.56
2023-01-26T15:08:05.362Z,-0.58
2023-01-26T15:10:53.397Z,-0.59
2023-01-26T15:13:29.953Z,-0.63
2023-01-26T15:16:11.930Z,-0.65
2023-01-26T15:18:39.742Z,-0.66
2023-01-26T15:21:39.908Z,-0.66
2023-01-26T15:24:15.032Z,-0.66
2023-01-26T15:26:44.217Z,-0.66
2023-01-26T15:29:30.685Z,-0.68
2023-01-26T15:31:59.327Z,-0.69
2023-01-26T15:34:32.437Z,-0.70
2023-01-26T15:37:01.627Z,-0.70
2023-01-26T15:39:30.254Z,-0.69
2023-01-26T15:42:22.272Z,-0.68
2023-01-26T15:44:50.468Z,-0.69
2023-01-26T15:47:18.225Z,-0.69
2023-01-26T15:49:46.376Z,-0.68
2023-01-26T15:52:41.987Z,-0.70
2023-01-26T15:55:26.641Z,-0.71
2023-01-26T15:57:54.682Z,-0.70
2023-01-26T16:00:23.675Z,-0.71
2023-01-26T16:02:51.567Z,-0.72
2023-01-26T16:05:23.177Z,-0.74
2023-01-26T16:07:52.575Z,-0.75
2023-01-26T16:10:20.827Z,-0.77
2023-01-26T16:12:50.390Z,-0.77
2023-01-26T16:15:27.523Z,-0.77
2023-01-26T16:17:55.391Z,-0.78
2023-01-26T16:20:23.204Z,-0.79
2023-01-26T16:22:51.040Z,-0.79
2023-01-26T16:25:29.337Z,-0.79
2023-01-26T16:27:58.581Z,-0.81
2023-01-26T16:30:26.919Z,-0.81
2023-01-26T16:32:54.844Z,-0.80
2023-01-26T16:35:24.221Z,-0.80
2023-01-26T16:37:52.247Z,-0.79
2023-01-26T16:40:20.186Z,-0.78
2023-01-26T16:42:51.233Z,-0.78
2023-01-26T16:45:22.918Z,-0.76
2023-01-26T16:47:54.885Z,-0.76
2023-01-26T16:50:24.062Z,-0.76
2023-01-26T16:52:52.516Z,-0.77
2023-01-26T16:55:20.536Z,-0.76
2023-01-26T16:57:49.950Z,-0.76
2023-01-26T17:00:20.407Z,-0.78
2023-01-26T17:02:51.515Z,-0.79
2023-01-26T17:05:22.245Z,-0.81
2023-01-26T17:07:51.074Z,-0.84
2023-01-26T17:10:22.580Z,-0.86
2023-01-26T17:12:50.655Z,-0.87
2023-01-26T17:15:18.649Z,-0.90
2023-01-26T17:17:49.311Z,-0.91
2023-01-26T17:20:19.640Z,-0.94
2023-01-26T17:22:48.782Z,-0.94
2023-01-26T17:25:18.275Z,-0.94
2023-01-26T17:27:48.213Z,-0.93
2023-01-26T17:30:17.726Z,-0.95
2023-01-26T17:32:45.753Z,-0.95
2023-01-26T17:35:14.097Z,-0.95
2023-01-26T17:37:42.145Z,-0.96
2023-01-26T17:40:11.058Z,-0.98
2023-01-26T17:42:39.159Z,-1.01
2023-01-26T17:45:09.941Z,-0.99
2023-01-26T17:47:38.805Z,-0.99
2023-01-26T17:50:07.146Z,-1.01
2023-01-26T17:52:42.081Z,-1.04
2023-01-26T17:55:13.000Z,-1.07
2023-01-26T17:57:41.086Z,-1.08
2023-01-26T18:00:12.101Z,-1.09
2023-01-26T18:02:39.908Z,-1.11
2023-01-26T18:05:08.923Z,-1.13
2023-01-26T18:07:36.854Z,-1.15
2023-01-26T18:10:05.153Z,-1.15
2023-01-26T18:12:33.298Z,-1.17
2023-01-26T18:15:01.551Z,-1.18
2023-01-26T18:17:29.323Z,-1.17
2023-01-26T18:19:57.071Z,-1.17
2023-01-26T18:22:24.901Z,-1.16
2023-01-26T18:24:52.774Z,-1.16
2023-01-26T18:27:20.629Z,-1.16
2023-01-26T18:29:48.515Z,-1.17
2023-01-26T18:32:16.424Z,-1.18
2023-01-26T18:34:44.385Z,-1.18
2023-01-26T18:37:13.143Z,-1.19
2023-01-26T18:39:40.967Z,-1.19
2023-01-26T18:42:08.793Z,-1.19
2023-01-26T18:44:37.430Z,-1.21
2023-01-26T18:47:05.358Z,-1.19
2023-01-26T18:49:33.103Z,-1.17
2023-01-26T18:52:10.225Z,-1.16
2023-01-26T18:54:44.658Z,-1.17
2023-01-26T18:57:13.101Z,-1.18
2023-01-26T18:59:40.856Z,-1.20
2023-01-26T19:04:37.419Z,-1.21
2023-01-26T19:07:05.461Z,-1.24
2023-01-26T19:09:35.110Z,-1.26
2023-01-26T19:12:04.439Z,-1.27
2023-01-26T19:14:33.000Z,-1.27
2023-01-26T19:17:01.301Z,-1.27
2023-01-26T19:19:31.102Z,-1.27
2023-01-26T19:21:59.011Z,-1.25
2023-01-26T19:24:26.896Z,-1.25
2023-01-26T19:26:54.871Z,-1.24
2023-01-26T19:29:22.659Z,-1.22
2023-01-26T19:31:50.744Z,-1.23
2023-01-26T19:34:18.626Z,-1.23
2023-01-26T19:36:46.980Z,-1.22
2023-01-26T19:39:14.985Z,-1.22
2023-01-26T19:41:44.180Z,-1.21
2023-01-26T19:44:12.012Z,-1.21
2023-01-26T19:46:39.942Z,-1.19
2023-01-26T19:49:11.689Z,-1.18
2023-01-26T19:51:39.652Z,-1.19
2023-01-26T19:54:08.620Z,-1.19
2023-01-26T19:56:37.328Z,-1.20
2023-01-26T19:59:07.998Z,-1.19
2023-01-26T20:01:36.497Z,-1.17
2023-01-26T20:04:07.646Z,-1.15
2023-01-26T20:06:36.959Z,-1.14
2023-01-26T20:09:06.585Z,-1.14
2023-01-26T20:11:34.895Z,-1.14
2023-01-26T20:14:06.173Z,-1.13
2023-01-26T20:16:34.491Z,-1.11
2023-01-26T20:19:03.742Z,-1.11
2023-01-26T20:21:32.370Z,-1.10
2023-01-26T20:24:05.571Z,-1.09
2023-01-26T20:26:34.908Z,-1.09
2023-01-26T20:29:04.070Z,-1.09
2023-01-26T20:31:33.199Z,-1.08
2023-01-26T20:34:02.102Z,-1.08
2023-01-26T20:36:31.616Z,-1.09
2023-01-26T20:39:00.207Z,-1.09
2023-01-26T20:41:30.072Z,-1.08
2023-01-26T20:44:01.858Z,-1.08
2023-01-26T20:46:40.615Z,-1.08
2023-01-26T20:49:12.694Z,-1.07
2023-01-26T20:51:42.628Z,-1.08
2023-01-26T20:54:16.912Z,-1.08
2023-01-26T20:56:49.172Z,-1.08
2023-01-26T20:59:18.932Z,-1.08
2023-01-26T21:01:46.888Z,-1.07
2023-01-26T21:04:14.705Z,-1.07
2023-01-26T21:06:42.540Z,-1.05
2023-01-26T21:09:12.760Z,-1.04
2023-01-26T21:11:40.950Z,-1.02
2023-01-26T21:14:12.204Z,-0.99
2023-01-26T21:16:40.825Z,-1.00
2023-01-26T21:19:08.745Z,-1.01
2023-01-26T21:21:36.615Z,-1.01
2023-01-26T21:24:04.701Z,-1.00
2023-01-26T21:26:32.907Z,-1.00
2023-01-26T21:29:01.090Z,-0.98
2023-01-26T21:31:31.724Z,-0.98
2023-01-26T21:34:00.910Z,-0.97
2023-01-26T21:36:31.036Z,-0.96
2023-01-26T21:39:00.412Z,-0.96
2023-01-26T21:41:51.908Z,-0.94
2023-01-26T21:44:27.929Z,-0.92
2023-01-26T21:46:59.315Z,-0.91
2023-01-26T21:49:30.815Z,-0.89
2023-01-26T21:52:17.038Z,-0.88
2023-01-26T21:54:44.962Z,-0.86
2023-01-26T21:57:31.560Z,-0.86
2023-01-26T21:59:59.462Z,-0.86
2023-01-26T22:02:27.306Z,-0.85
2023-01-26T22:04:55.376Z,-0.84
2023-01-26T22:07:23.184Z,-0.84
2023-01-26T22:09:50.955Z,-0.83
2023-01-26T22:12:18.958Z,-0.83
2023-01-26T22:14:46.850Z,-0.82
2023-01-26T22:17:14.608Z,-0.81
2023-01-26T22:19:42.412Z,-0.81
2023-01-26T22:22:10.231Z,-0.82
2023-01-26T22:24:38.742Z,-0.84
2023-01-26T22:27:08.328Z,-0.85
2023-01-26T22:29:36.278Z,-0.86
2023-01-26T22:32:04.472Z,-0.86
2023-01-26T22:34:32.584Z,-0.87
2023-01-26T22:37:00.434Z,-0.87
2023-01-26T22:39:28.259Z,-0.87
2023-01-26T22:41:56.069Z,-0.87
2023-01-26T22:44:23.955Z,-0.89
2023-01-26T22:46:52.632Z,-0.90
2023-01-26T22:49:20.446Z,-0.91
2023-01-26T22:51:48.252Z,-0.91
2023-01-26T22:54:16.064Z,-0.92
2023-01-26T22:56:44.056Z,-0.92
2023-01-26T22:59:12.040Z,-0.93
2023-01-26T23:01:39.863Z,-0.94
2023-01-26T23:04:08.619Z,-0.95
2023-01-26T23:06:36.583Z,-0.98
2023-01-26T23:09:04.815Z,-1.01
2023-01-26T23:11:32.831Z,-1.02
2023-01-26T23:14:00.904Z,-1.02
2023-01-26T23:16:29.322Z,-1.01
2023-01-26T23:18:58.918Z,-1.01
2023-01-26T23:21:27.991Z,-1.01
2023-01-26T23:23:56.059Z,-1.01
2023-01-26T23:26:24.825Z,-1.03
2023-01-26T23:28:52.584Z,-1.06
2023-01-26T23:31:20.971Z,-1.08
2023-01-26T23:33:49.874Z,-1.09
2023-01-26T23:36:17.764Z,-1.09
2023-01-26T23:38:45.998Z,-1.09
2023-01-26T23:41:13.913Z,-1.09
2023-01-26T23:43:41.730Z,-1.10
2023-01-26T23:46:10.524Z,-1.12
2023-01-26T23:48:39.340Z,-1.15
2023-01-26T23:51:10.778Z,-1.17
2023-01-26T23:53:39.144Z,-1.18
2023-01-26T23:56:10.833Z,-1.19
2023-01-26T23:58:39.065Z,-1.19
